EFMA/MHQ METAR and TAF weather

Enter ICAO airport designator
Station Type Date Time Source
EFMA METAR 2022/12/04 05:50 UTC NOAA

EFMA 040550Z AUTO 05007KT 9999 BKN018 M02/M05 Q1034


Station Type Date Time Source
EFMA Decoded METAR 2022/12/04 05:50 UTC NOAA

Mariehamn / Aland Island, Finland (EFMA) 60-07N 019-54E
Dec 04, 2022 - 12:50 AM EST / 2022.12.04 0550 UTC
Wind: from the NE (050 degrees) at 8 MPH (7 KT):0
Visibility: greater than 7 mile(s):0
Sky conditions: mostly cloudy
Temperature: 28 F (-2 C)
Windchill: 19 F (-7 C):1
Dew Point: 23 F (-5 C)
Relative Humidity: 79%
Pressure (altimeter): 30.53 in. Hg (1034 hPa)
ob: EFMA 040550Z AUTO 05007KT 9999 BKN018 M02/M05 Q1034
cycle: 6

Station Type Date Time Source
EFMA TAF 2014/05/01 21:18 UTC NOAA

TAF TAF EFMA 302037Z 3021/0106 08008KT CAVOK
TEMPO 3023/0101 02010KT 6000 RASN
BECMG 0101/0103 01012KT 4000 RASN BKN010 OVC025

Example: see airport list